Garre, Argentina
Current Conditions -  °F | °C
As of 4:00 AM on Saturday 01 Nov 2014 (Local Time) from SAOC Reporting Station
Light Rain Light Rain  
Wind Chill: 54°   Ceiling: 500
Heat Index: 54°   Visibility: 3mi
Dew Point: 54°   Wind: 18mph
Humidity: 100%   Direction: 90°E
Pressure: 30.09"   Gusts: NA
Location:  36.57°S, 62.6°W
Report Text: SAOC 010700Z 09016KT 5000 -RA BKN005 OVC045 12/12 Q1019
Loading
Personal Weather Stations






























Interactive Weather Map
Tropical Storm Tracking
New forecast layout! Learn more

10-Day Weather Forecast

Advertisements
Track Severe Weather on mobile